createdAt,value
2023-10-10T00:01:47.058Z,14.62
2023-10-10T00:04:14.146Z,14.64
2023-10-10T00:06:41.926Z,14.48
2023-10-10T00:09:13.187Z,14.51
2023-10-10T00:11:42.239Z,14.57
2023-10-10T00:14:19.353Z,14.57
2023-10-10T00:16:56.381Z,14.56
2023-10-10T00:19:26.148Z,14.56
2023-10-10T00:21:53.156Z,14.47
2023-10-10T00:24:31.875Z,14.44
2023-10-10T00:27:14.478Z,14.45
2023-10-10T00:29:45.353Z,14.33
2023-10-10T00:32:24.327Z,14.39
2023-10-10T00:34:52.273Z,14.25
2023-10-10T00:37:27.358Z,14.12
2023-10-10T00:39:54.332Z,14.08
2023-10-10T00:42:29.100Z,14.22
2023-10-10T00:44:56.016Z,14.06
2023-10-10T00:47:26.485Z,13.95
2023-10-10T00:49:54.421Z,14.14
2023-10-10T00:52:22.043Z,14.05
2023-10-10T00:54:51.228Z,13.97
2023-10-10T00:57:23.106Z,13.97
2023-10-10T00:59:56.029Z,13.66
2023-10-10T01:02:24.197Z,13.86
2023-10-10T01:04:56.897Z,13.92
2023-10-10T01:07:26.842Z,13.91
2023-10-10T01:09:58.098Z,13.94
2023-10-10T01:12:27.365Z,13.93
2023-10-10T01:14:56.244Z,13.84
2023-10-10T01:17:31.211Z,13.90
2023-10-10T01:20:22.138Z,13.95
2023-10-10T01:22:50.235Z,13.97
2023-10-10T01:25:36.141Z,13.93
2023-10-10T01:28:07.188Z,13.89
2023-10-10T01:30:52.690Z,13.78
2023-10-10T01:33:24.896Z,13.73
2023-10-10T01:35:57.152Z,13.77
2023-10-10T01:38:57.996Z,13.77
2023-10-10T01:41:32.877Z,13.77
2023-10-10T01:44:20.624Z,13.63
2023-10-10T01:46:48.153Z,13.75
2023-10-10T01:49:17.136Z,13.72
2023-10-10T01:51:45.153Z,13.68
2023-10-10T01:54:35.498Z,13.76
2023-10-10T01:57:07.788Z,13.79
2023-10-10T01:59:40.220Z,13.68
2023-10-10T02:02:11.600Z,13.75
2023-10-10T02:04:40.985Z,13.75
2023-10-10T02:07:15.616Z,13.73
2023-10-10T02:09:44.951Z,13.73
2023-10-10T02:12:17.277Z,13.76
2023-10-10T02:14:44.659Z,13.61
2023-10-10T02:17:30.682Z,13.16
2023-10-10T02:20:26.776Z,13.63
2023-10-10T02:23:14.813Z,13.83
2023-10-10T02:25:47.344Z,13.50
2023-10-10T02:28:17.372Z,13.63
2023-10-10T02:30:47.413Z,13.90
2023-10-10T02:33:21.138Z,13.63
2023-10-10T02:35:55.919Z,13.66
2023-10-10T02:38:41.383Z,13.65
2023-10-10T02:41:36.525Z,13.74
2023-10-10T02:44:03.529Z,13.60
2023-10-10T02:46:37.159Z,13.59
2023-10-10T02:49:31.153Z,13.73
2023-10-10T02:51:58.585Z,13.65
2023-10-10T02:54:28.141Z,13.57
2023-10-10T02:56:59.698Z,13.64
2023-10-10T02:59:34.381Z,13.54
2023-10-10T03:02:09.763Z,13.68
2023-10-10T03:04:55.588Z,13.76
2023-10-10T03:07:30.498Z,13.66
2023-10-10T03:10:08.991Z,13.74
2023-10-10T03:12:39.251Z,13.60
2023-10-10T03:15:15.618Z,13.76
2023-10-10T03:18:02.093Z,13.58
2023-10-10T03:20:32.993Z,13.66
2023-10-10T03:23:07.198Z,13.68
2023-10-10T03:25:48.991Z,13.71
2023-10-10T03:28:21.099Z,13.79
2023-10-10T03:31:11.906Z,13.75
2023-10-10T03:33:46.117Z,13.76
2023-10-10T03:36:15.025Z,13.56
2023-10-10T03:38:49.509Z,13.80
2023-10-10T03:41:36.398Z,13.73
2023-10-10T03:44:21.894Z,13.79
2023-10-10T03:47:01.209Z,13.83
2023-10-10T03:49:48.400Z,13.95
2023-10-10T03:52:34.561Z,13.82
2023-10-10T03:55:20.484Z,13.80
2023-10-10T03:58:05.909Z,13.83
2023-10-10T04:00:51.505Z,13.77
2023-10-10T04:03:36.955Z,13.86
2023-10-10T04:06:23.628Z,13.86
2023-10-10T04:09:09.561Z,13.72
2023-10-10T04:11:55.154Z,13.95
2023-10-10T04:14:40.869Z,13.92
2023-10-10T04:17:26.327Z,13.82
2023-10-10T04:20:12.156Z,13.87
2023-10-10T04:22:57.862Z,13.84
2023-10-10T04:25:43.493Z,13.81
2023-10-10T04:28:29.534Z,13.90
2023-10-10T04:31:15.041Z,13.87
2023-10-10T04:34:00.759Z,13.92
2023-10-10T04:36:46.276Z,13.96
2023-10-10T04:39:31.395Z,13.79
2023-10-10T04:42:16.712Z,13.84
2023-10-10T04:45:02.151Z,13.84
2023-10-10T04:47:47.964Z,13.91
2023-10-10T04:50:33.626Z,13.99
2023-10-10T04:53:19.319Z,13.95
2023-10-10T04:56:04.813Z,13.86
2023-10-10T04:58:50.274Z,13.87
2023-10-10T05:01:35.728Z,13.89
2023-10-10T05:04:21.261Z,13.91
2023-10-10T05:07:06.919Z,13.85
2023-10-10T05:09:54.344Z,13.94
2023-10-10T05:12:40.012Z,13.86
2023-10-10T05:15:26.320Z,13.88
2023-10-10T05:18:11.940Z,13.86
2023-10-10T05:20:59.954Z,13.95
2023-10-10T05:23:36.088Z,13.91
2023-10-10T05:26:07.125Z,13.82
2023-10-10T05:28:34.480Z,13.88
2023-10-10T05:31:04.367Z,13.96
2023-10-10T05:33:32.163Z,13.81
2023-10-10T05:36:00.650Z,13.99
2023-10-10T05:38:27.948Z,13.87
2023-10-10T05:40:55.672Z,13.95
2023-10-10T05:43:28.068Z,13.83
2023-10-10T05:45:55.695Z,13.93
2023-10-10T05:48:23.437Z,13.97
2023-10-10T05:50:50.510Z,13.96
2023-10-10T05:53:18.638Z,13.91
2023-10-10T05:55:54.692Z,13.94
2023-10-10T05:58:24.611Z,13.89
2023-10-10T06:00:51.469Z,13.94
2023-10-10T06:03:18.856Z,14.00
2023-10-10T06:05:46.178Z,13.95
2023-10-10T06:08:16.473Z,13.98
2023-10-10T06:10:43.536Z,13.95
2023-10-10T06:13:12.863Z,13.90
2023-10-10T06:15:40.858Z,14.00
2023-10-10T06:18:13.943Z,14.06
2023-10-10T06:20:54.223Z,14.02
2023-10-10T06:23:27.512Z,14.11
2023-10-10T06:26:01.835Z,14.07
2023-10-10T06:28:30.736Z,14.17
2023-10-10T06:31:01.328Z,14.17
2023-10-10T06:33:31.097Z,14.16
2023-10-10T06:36:24.446Z,14.18
2023-10-10T06:39:06.940Z,14.14
2023-10-10T06:41:40.453Z,14.20
2023-10-10T06:44:19.146Z,14.15
2023-10-10T06:46:50.156Z,14.25
2023-10-10T06:49:17.317Z,14.23
2023-10-10T06:51:44.441Z,14.23
2023-10-10T06:54:28.932Z,14.33
2023-10-10T06:57:02.347Z,14.27
2023-10-10T06:59:30.385Z,14.33
2023-10-10T07:02:14.151Z,14.30
2023-10-10T07:04:42.136Z,14.28
2023-10-10T07:07:10.446Z,14.37
2023-10-10T07:09:43.731Z,14.31
2023-10-10T07:12:11.811Z,14.43
2023-10-10T07:14:45.358Z,14.54
2023-10-10T07:17:13.844Z,14.40
2023-10-10T07:20:03.006Z,14.45
2023-10-10T07:22:35.952Z,14.58
2023-10-10T07:25:18.801Z,14.36
2023-10-10T07:27:46.198Z,14.44
2023-10-10T07:30:19.729Z,14.58
2023-10-10T07:32:50.431Z,14.57
2023-10-10T07:35:18.975Z,14.61
2023-10-10T07:37:46.928Z,14.69
2023-10-10T07:40:17.711Z,14.68
2023-10-10T07:42:51.880Z,14.66
2023-10-10T07:45:29.526Z,14.60
2023-10-10T07:47:59.394Z,14.75
2023-10-10T07:50:36.204Z,14.77
2023-10-10T07:53:08.154Z,14.76
2023-10-10T07:55:54.766Z,14.95
2023-10-10T07:58:51.299Z,14.81
2023-10-10T08:01:20.016Z,14.99
2023-10-10T08:03:48.275Z,14.99
2023-10-10T08:06:23.897Z,15.00
2023-10-10T08:09:19.522Z,15.12
2023-10-10T08:11:47.582Z,15.10
2023-10-10T08:14:15.057Z,15.07
2023-10-10T08:16:44.714Z,15.14
2023-10-10T08:19:16.685Z,15.17
2023-10-10T08:21:53.098Z,15.32
2023-10-10T08:24:21.761Z,15.28
2023-10-10T08:26:52.574Z,15.27
2023-10-10T08:29:24.032Z,15.41
2023-10-10T08:31:53.124Z,15.36
2023-10-10T08:34:29.060Z,15.25
2023-10-10T08:37:04.339Z,15.35
2023-10-10T08:39:36.848Z,15.39
2023-10-10T08:42:12.771Z,15.21
2023-10-10T08:44:42.521Z,15.34
2023-10-10T08:47:20.592Z,15.38
2023-10-10T08:49:49.201Z,15.32
2023-10-10T08:52:21.427Z,15.47
2023-10-10T08:54:49.206Z,15.32
2023-10-10T08:57:25.935Z,15.59
2023-10-10T08:59:53.989Z,15.61
2023-10-10T09:02:21.726Z,15.71
2023-10-10T09:04:52.083Z,15.78
2023-10-10T09:07:24.750Z,15.82
2023-10-10T09:10:07.793Z,15.94
2023-10-10T09:12:49.426Z,15.93
2023-10-10T09:15:18.450Z,16.02
2023-10-10T09:17:47.083Z,16.03
2023-10-10T09:20:24.925Z,15.86
2023-10-10T09:23:18.558Z,16.07
2023-10-10T09:25:50.108Z,16.11
2023-10-10T09:28:20.145Z,16.15
2023-10-10T09:31:11.237Z,16.27
2023-10-10T09:33:44.013Z,16.29
2023-10-10T09:36:11.166Z,16.31
2023-10-10T09:38:45.326Z,16.29
2023-10-10T09:41:34.785Z,16.40
2023-10-10T09:44:24.218Z,16.32
2023-10-10T09:47:10.760Z,16.42
2023-10-10T09:49:48.146Z,16.53
2023-10-10T09:52:34.934Z,16.50
2023-10-10T09:55:15.597Z,16.63
2023-10-10T09:58:07.067Z,16.67
2023-10-10T10:00:39.513Z,16.78
2023-10-10T10:03:27.897Z,16.86
2023-10-10T10:06:06.883Z,16.92
2023-10-10T10:09:16.097Z,16.86
2023-10-10T10:11:58.042Z,17.05
2023-10-10T10:15:01.394Z,17.11
2023-10-10T10:17:55.951Z,17.10
2023-10-10T10:20:47.158Z,17.00
2023-10-10T10:23:27.919Z,17.00
2023-10-10T10:26:05.763Z,17.05
2023-10-10T10:28:39.197Z,17.11
2023-10-10T10:31:07.171Z,17.27
2023-10-10T10:33:35.043Z,17.16
2023-10-10T10:36:16.395Z,17.41
2023-10-10T10:39:05.033Z,17.42
2023-10-10T10:41:44.464Z,17.46
2023-10-10T10:44:14.247Z,17.47
2023-10-10T10:46:42.700Z,17.52
2023-10-10T10:49:13.761Z,17.63
2023-10-10T10:51:48.734Z,17.61
2023-10-10T10:54:39.289Z,17.79
2023-10-10T10:57:06.330Z,17.76
2023-10-10T10:59:46.721Z,17.73
2023-10-10T11:02:17.927Z,17.73
2023-10-10T11:04:51.813Z,17.61
2023-10-10T11:07:30.341Z,17.64
2023-10-10T11:10:17.585Z,17.76
2023-10-10T11:12:46.012Z,17.59
2023-10-10T11:15:13.107Z,17.69
2023-10-10T11:17:41.351Z,17.65
2023-10-10T11:20:27.805Z,17.77
2023-10-10T11:23:08.980Z,17.77
2023-10-10T11:25:48.278Z,17.74
2023-10-10T11:28:23.459Z,17.80
2023-10-10T11:30:52.353Z,17.83
2023-10-10T11:33:52.105Z,17.84
2023-10-10T11:36:41.130Z,17.68
2023-10-10T11:39:33.482Z,17.90
2023-10-10T11:42:05.838Z,18.05
2023-10-10T11:44:35.034Z,18.09
2023-10-10T11:47:08.724Z,18.09
2023-10-10T11:49:36.793Z,18.08
2023-10-10T11:52:05.276Z,18.24
2023-10-10T11:54:32.141Z,18.14
2023-10-10T11:57:01.122Z,18.29
2023-10-10T11:59:28.233Z,18.22
2023-10-10T12:02:15.518Z,18.32
2023-10-10T12:04:46.250Z,18.30
2023-10-10T12:07:15.713Z,18.35
2023-10-10T12:09:46.501Z,18.21
2023-10-10T12:12:14.534Z,18.31
2023-10-10T12:14:44.065Z,18.26
2023-10-10T12:17:12.003Z,18.24
2023-10-10T12:19:38.976Z,18.41
2023-10-10T12:22:10.220Z,18.47
2023-10-10T12:24:37.226Z,18.51
2023-10-10T12:27:08.505Z,18.63
2023-10-10T12:29:42.819Z,18.62
2023-10-10T12:32:17.470Z,18.64
2023-10-10T12:34:44.838Z,18.57
2023-10-10T12:37:12.064Z,18.65
2023-10-10T12:39:39.558Z,18.62
2023-10-10T12:42:08.984Z,18.75
2023-10-10T12:44:36.369Z,18.72
2023-10-10T12:47:07.953Z,18.84
2023-10-10T12:49:38.071Z,18.90
2023-10-10T12:52:13.663Z,18.94
2023-10-10T12:54:43.251Z,18.85
2023-10-10T12:57:15.505Z,18.77
2023-10-10T12:59:48.056Z,18.82
2023-10-10T13:02:17.301Z,18.91
2023-10-10T13:04:48.543Z,18.94
2023-10-10T13:07:17.855Z,19.02
2023-10-10T13:09:47.971Z,18.85
2023-10-10T13:12:29.079Z,19.04
2023-10-10T13:15:12.615Z,18.91
2023-10-10T13:17:51.732Z,18.86
2023-10-10T13:20:20.076Z,18.80
2023-10-10T13:22:51.978Z,18.84
2023-10-10T13:25:20.560Z,18.81
2023-10-10T13:27:47.785Z,18.78
2023-10-10T13:30:15.173Z,18.77
2023-10-10T13:32:43.128Z,18.76
2023-10-10T13:35:10.702Z,18.77
2023-10-10T13:37:42.450Z,18.74
2023-10-10T13:40:11.206Z,18.74
2023-10-10T13:42:41.869Z,18.78
2023-10-10T13:45:13.571Z,18.66
2023-10-10T13:47:42.053Z,18.64
2023-10-10T13:50:29.883Z,18.58
2023-10-10T13:52:57.093Z,18.53
2023-10-10T13:55:24.636Z,18.52
2023-10-10T13:57:51.554Z,18.39
2023-10-10T14:00:31.165Z,18.37
2023-10-10T14:03:07.501Z,18.52
2023-10-10T14:05:39.324Z,18.41
2023-10-10T14:08:19.325Z,18.44
2023-10-10T14:10:51.720Z,18.46
2023-10-10T14:13:23.027Z,18.32
2023-10-10T14:15:59.191Z,18.40
2023-10-10T14:18:31.333Z,18.53
2023-10-10T14:21:08.704Z,18.36
2023-10-10T14:23:40.686Z,18.34
2023-10-10T14:26:15.084Z,18.40
2023-10-10T14:28:43.311Z,18.42
2023-10-10T14:31:14.079Z,18.29
2023-10-10T14:33:42.065Z,18.36
2023-10-10T14:36:15.597Z,18.38
2023-10-10T14:38:46.310Z,18.36
2023-10-10T14:41:21.358Z,18.33
2023-10-10T14:43:53.638Z,18.43
2023-10-10T14:46:24.087Z,18.45
2023-10-10T14:49:07.644Z,18.34
2023-10-10T14:51:36.350Z,18.36
2023-10-10T14:54:13.482Z,17.98
2023-10-10T14:56:47.804Z,18.34
2023-10-10T14:59:20.264Z,18.36
2023-10-10T15:01:50.817Z,18.30
2023-10-10T15:04:22.970Z,18.24
2023-10-10T15:06:55.828Z,18.18
2023-10-10T15:09:27.021Z,18.28
2023-10-10T15:11:59.878Z,18.21
2023-10-10T15:14:27.339Z,18.17
2023-10-10T15:16:55.154Z,17.98
2023-10-10T15:19:22.174Z,18.20
2023-10-10T15:21:49.888Z,18.09
2023-10-10T15:24:17.277Z,18.12
2023-10-10T15:26:49.774Z,18.19
2023-10-10T15:29:18.207Z,18.13
2023-10-10T15:31:46.512Z,18.08
2023-10-10T15:34:17.787Z,18.14
2023-10-10T15:36:47.942Z,18.13
2023-10-10T15:39:17.517Z,18.10
2023-10-10T15:41:46.203Z,18.11
2023-10-10T15:44:17.164Z,18.20
2023-10-10T15:46:45.253Z,18.18
2023-10-10T15:51:46.309Z,18.07
2023-10-10T15:54:16.389Z,18.16
2023-10-10T15:56:44.181Z,18.08
2023-10-10T15:59:11.637Z,18.14
2023-10-10T16:01:38.849Z,18.05
2023-10-10T16:04:13.961Z,18.11
2023-10-10T16:06:48.968Z,18.07
2023-10-10T16:09:22.569Z,18.00
2023-10-10T16:11:58.331Z,18.06
2023-10-10T16:14:26.929Z,18.01
2023-10-10T16:16:54.441Z,18.01
2023-10-10T16:19:25.993Z,18.01
2023-10-10T16:21:54.726Z,17.96
2023-10-10T16:24:21.835Z,17.84
2023-10-10T16:27:00.536Z,17.92
2023-10-10T16:29:34.940Z,18.04
2023-10-10T16:32:09.930Z,17.89
2023-10-10T16:34:42.649Z,17.94
2023-10-10T16:37:15.552Z,17.93
2023-10-10T16:39:47.100Z,17.91
2023-10-10T16:42:16.509Z,17.89
2023-10-10T16:44:46.247Z,17.84
2023-10-10T16:47:18.573Z,17.85
2023-10-10T16:49:46.265Z,17.69
2023-10-10T16:52:13.216Z,17.83
2023-10-10T16:54:42.083Z,17.87
2023-10-10T16:57:12.460Z,17.78
2023-10-10T16:59:39.786Z,17.74
2023-10-10T17:02:07.133Z,17.67
2023-10-10T17:04:34.907Z,17.74
2023-10-10T17:07:01.664Z,17.81
2023-10-10T17:09:29.859Z,17.67
2023-10-10T17:12:04.445Z,17.62
2023-10-10T17:14:32.333Z,17.74
2023-10-10T17:16:59.235Z,17.75
2023-10-10T17:19:26.243Z,17.68
2023-10-10T17:21:53.492Z,17.73
2023-10-10T17:24:21.324Z,17.63
2023-10-10T17:26:48.739Z,17.51
2023-10-10T17:29:17.624Z,17.60
2023-10-10T17:31:44.706Z,17.63
2023-10-10T17:34:17.291Z,17.77
2023-10-10T17:36:44.718Z,17.72
2023-10-10T17:39:16.906Z,17.73
2023-10-10T17:41:49.371Z,17.66
2023-10-10T17:44:19.532Z,17.67
2023-10-10T17:46:48.336Z,17.66
2023-10-10T17:49:16.383Z,17.70
2023-10-10T17:51:46.198Z,17.75
2023-10-10T17:54:17.612Z,17.65
2023-10-10T17:56:46.050Z,17.65
2023-10-10T17:59:13.390Z,17.61
2023-10-10T18:01:40.341Z,17.64
2023-10-10T18:04:08.604Z,17.61
2023-10-10T18:06:36.406Z,17.52
2023-10-10T18:09:09.888Z,17.49
2023-10-10T18:11:38.246Z,17.54
2023-10-10T18:14:08.580Z,17.44
2023-10-10T18:16:38.722Z,17.44
2023-10-10T18:19:07.124Z,17.59
2023-10-10T18:21:34.592Z,17.38
2023-10-10T18:24:07.600Z,17.50
2023-10-10T18:26:39.177Z,17.52
2023-10-10T18:29:06.852Z,16.74
2023-10-10T18:31:35.982Z,17.48
2023-10-10T18:34:06.436Z,17.45
2023-10-10T18:36:38.483Z,17.35
2023-10-10T18:39:13.209Z,17.44
2023-10-10T18:41:44.163Z,17.43
2023-10-10T18:44:12.316Z,17.43
2023-10-10T18:46:39.610Z,17.31
2023-10-10T18:49:07.241Z,16.78
2023-10-10T18:51:34.268Z,17.33
2023-10-10T18:54:01.539Z,17.36
2023-10-10T18:56:28.717Z,17.44
2023-10-10T18:58:55.657Z,17.33
2023-10-10T19:01:23.470Z,17.25
2023-10-10T19:03:50.882Z,17.31
2023-10-10T19:06:21.709Z,17.27
2023-10-10T19:08:49.952Z,17.24
2023-10-10T19:11:24.897Z,16.98
2023-10-10T19:13:52.103Z,17.20
2023-10-10T19:16:19.870Z,17.19
2023-10-10T19:18:47.717Z,17.05
2023-10-10T19:21:17.177Z,17.32
2023-10-10T19:23:51.584Z,17.24
2023-10-10T19:26:19.211Z,17.11
2023-10-10T19:28:54.510Z,17.15
2023-10-10T19:31:24.241Z,16.88
2023-10-10T19:33:51.827Z,17.13
2023-10-10T19:36:21.546Z,17.15
2023-10-10T19:38:49.130Z,16.96
2023-10-10T19:41:16.296Z,17.10
2023-10-10T19:43:43.333Z,17.16
2023-10-10T19:46:13.661Z,17.12
2023-10-10T19:48:42.301Z,17.08
2023-10-10T19:51:19.610Z,17.11
2023-10-10T19:53:51.563Z,17.08
2023-10-10T19:56:19.035Z,16.83
2023-10-10T19:58:50.072Z,16.93
2023-10-10T20:01:17.566Z,16.92
2023-10-10T20:03:47.276Z,16.92
2023-10-10T20:06:22.049Z,16.88
2023-10-10T20:08:55.616Z,16.87
2023-10-10T20:11:25.649Z,16.81
2023-10-10T20:13:53.150Z,16.79
2023-10-10T20:16:22.062Z,16.86
2023-10-10T20:18:54.162Z,16.87
2023-10-10T20:21:21.191Z,16.79
2023-10-10T20:23:48.629Z,16.76
2023-10-10T20:26:19.560Z,16.72
2023-10-10T20:28:48.925Z,16.71
2023-10-10T20:31:19.027Z,16.76
2023-10-10T20:33:48.838Z,16.68
2023-10-10T20:36:16.941Z,16.58
2023-10-10T20:38:44.698Z,16.65
2023-10-10T20:41:13.090Z,16.46
2023-10-10T20:43:41.743Z,16.62
2023-10-10T20:46:08.933Z,16.55
2023-10-10T20:48:35.907Z,16.45
2023-10-10T20:51:04.550Z,16.47
2023-10-10T20:53:32.105Z,16.52
2023-10-10T20:55:59.211Z,16.36
2023-10-10T20:58:26.093Z,16.46
2023-10-10T21:00:52.957Z,16.32
2023-10-10T21:03:20.200Z,16.42
2023-10-10T21:05:48.877Z,16.44
2023-10-10T21:08:28.705Z,16.16
2023-10-10T21:10:55.714Z,16.26
2023-10-10T21:13:23.066Z,16.24
2023-10-10T21:15:50.772Z,16.24
2023-10-10T21:18:19.968Z,16.21
2023-10-10T21:21:00.243Z,16.11
2023-10-10T21:23:30.105Z,16.16
2023-10-10T21:25:56.993Z,16.09
2023-10-10T21:28:24.219Z,16.13
2023-10-10T21:30:51.181Z,16.10
2023-10-10T21:33:18.630Z,16.09
2023-10-10T21:35:45.843Z,15.99
2023-10-10T21:38:12.858Z,16.06
2023-10-10T21:40:41.413Z,16.06
2023-10-10T21:43:11.640Z,15.97
2023-10-10T21:45:40.409Z,15.72
2023-10-10T21:48:11.653Z,15.91
2023-10-10T21:50:42.100Z,15.96
2023-10-10T21:53:09.389Z,15.90
2023-10-10T21:55:38.868Z,15.85
2023-10-10T21:58:15.049Z,15.85
2023-10-10T22:00:42.124Z,15.88
2023-10-10T22:03:09.240Z,15.91
2023-10-10T22:05:38.687Z,15.86
2023-10-10T22:08:07.849Z,15.74
2023-10-10T22:10:36.959Z,15.89
2023-10-10T22:13:07.533Z,15.86
2023-10-10T22:15:36.631Z,15.89
2023-10-10T22:18:08.016Z,15.77
2023-10-10T22:20:35.572Z,15.83
2023-10-10T22:23:02.720Z,15.65
2023-10-10T22:25:33.399Z,15.71
2023-10-10T22:28:01.641Z,15.74
2023-10-10T22:30:34.017Z,15.75
2023-10-10T22:33:01.460Z,15.75
2023-10-10T22:35:30.343Z,15.72
2023-10-10T22:37:57.650Z,15.68
2023-10-10T22:40:28.383Z,15.71
2023-10-10T22:43:04.940Z,15.67
2023-10-10T22:45:34.633Z,15.33
2023-10-10T22:48:04.796Z,15.54
2023-10-10T22:50:32.348Z,15.58
2023-10-10T22:53:02.499Z,15.62
2023-10-10T22:55:34.840Z,15.72
2023-10-10T22:58:07.960Z,15.58
2023-10-10T23:00:40.039Z,15.51
2023-10-10T23:03:12.336Z,15.68
2023-10-10T23:05:40.944Z,15.64
2023-10-10T23:08:08.237Z,15.38
2023-10-10T23:10:35.859Z,15.49
2023-10-10T23:13:03.583Z,15.53
2023-10-10T23:15:30.800Z,15.46
2023-10-10T23:18:00.582Z,15.44
2023-10-10T23:20:28.948Z,15.49
2023-10-10T23:23:04.272Z,15.49
2023-10-10T23:25:32.887Z,15.43
2023-10-10T23:28:00.342Z,15.52
2023-10-10T23:30:28.977Z,15.45
2023-10-10T23:33:20.670Z,15.47
2023-10-10T23:35:50.095Z,15.48
2023-10-10T23:38:20.938Z,15.36
2023-10-10T23:40:47.996Z,15.35
2023-10-10T23:43:20.479Z,15.43
2023-10-10T23:45:55.975Z,15.42
2023-10-10T23:48:30.592Z,15.47
2023-10-10T23:50:58.313Z,15.43
2023-10-10T23:53:25.832Z,15.35
2023-10-10T23:55:56.529Z,15.30
2023-10-10T23:58:26.811Z,15.37
